sensor_id;sensor_type;location;lat;lon;timestamp;P1;durP1;ratioP1;P2;durP2;ratioP2
47481;SDS011;33219;47.410;9.730;2023-08-06T00:01:29;8.88;;;5.58;;
47481;SDS011;33219;47.410;9.730;2023-08-06T00:03:57;8.80;;;5.92;;
47481;SDS011;33219;47.410;9.730;2023-08-06T00:06:25;10.03;;;6.22;;
47481;SDS011;33219;47.410;9.730;2023-08-06T00:08:55;7.72;;;6.05;;
47481;SDS011;33219;47.410;9.730;2023-08-06T00:11:22;10.53;;;6.87;;
47481;SDS011;33219;47.410;9.730;2023-08-06T00:13:50;9.43;;;6.50;;
47481;SDS011;33219;47.410;9.730;2023-08-06T00:16:18;8.98;;;6.20;;
47481;SDS011;33219;47.410;9.730;2023-08-06T00:18:46;7.08;;;5.67;;
47481;SDS011;33219;47.410;9.730;2023-08-06T00:21:14;8.95;;;5.83;;
47481;SDS011;33219;47.410;9.730;2023-08-06T00:23:41;8.15;;;6.12;;
47481;SDS011;33219;47.410;9.730;2023-08-06T00:26:09;8.68;;;6.30;;
47481;SDS011;33219;47.410;9.730;2023-08-06T00:28:36;8.25;;;6.20;;
47481;SDS011;33219;47.410;9.730;2023-08-06T00:31:04;7.03;;;5.42;;
47481;SDS011;33219;47.410;9.730;2023-08-06T00:33:32;10.48;;;6.42;;
47481;SDS011;33219;47.410;9.730;2023-08-06T00:35:59;7.10;;;5.08;;
47481;SDS011;33219;47.410;9.730;2023-08-06T00:38:27;10.10;;;5.60;;
47481;SDS011;33219;47.410;9.730;2023-08-06T00:40:55;7.42;;;5.42;;
47481;SDS011;33219;47.410;9.730;2023-08-06T00:43:23;9.20;;;6.28;;
47481;SDS011;33219;47.410;9.730;2023-08-06T00:45:50;9.98;;;7.15;;
47481;SDS011;33219;47.410;9.730;2023-08-06T00:48:18;11.48;;;7.55;;
47481;SDS011;33219;47.410;9.730;2023-08-06T00:50:47;12.88;;;8.48;;
47481;SDS011;33219;47.410;9.730;2023-08-06T00:53:15;12.98;;;8.65;;
47481;SDS011;33219;47.410;9.730;2023-08-06T00:55:43;10.58;;;8.03;;
47481;SDS011;33219;47.410;9.730;2023-08-06T00:58:12;12.13;;;8.38;;
47481;SDS011;33219;47.410;9.730;2023-08-06T01:00:40;12.53;;;8.48;;
47481;SDS011;33219;47.410;9.730;2023-08-06T01:03:08;11.75;;;8.68;;
47481;SDS011;33219;47.410;9.730;2023-08-06T01:05:36;11.90;;;8.20;;
47481;SDS011;33219;47.410;9.730;2023-08-06T01:16:07;12.90;;;7.90;;
47481;SDS011;33219;47.410;9.730;2023-08-06T01:18:36;10.65;;;7.47;;
47481;SDS011;33219;47.410;9.730;2023-08-06T01:21:10;10.35;;;7.33;;
47481;SDS011;33219;47.410;9.730;2023-08-06T01:23:34;11.18;;;8.18;;
47481;SDS011;33219;47.410;9.730;2023-08-06T01:26:10;12.03;;;8.55;;
47481;SDS011;33219;47.410;9.730;2023-08-06T01:28:59;9.85;;;6.97;;
47481;SDS011;33219;47.410;9.730;2023-08-06T01:31:37;8.43;;;5.62;;
47481;SDS011;33219;47.410;9.730;2023-08-06T01:34:13;6.10;;;4.67;;
47481;SDS011;33219;47.410;9.730;2023-08-06T01:36:37;5.45;;;4.60;;
47481;SDS011;33219;47.410;9.730;2023-08-06T01:39:05;5.90;;;4.10;;
47481;SDS011;33219;47.410;9.730;2023-08-06T01:41:32;5.15;;;4.10;;
47481;SDS011;33219;47.410;9.730;2023-08-06T01:44:00;5.67;;;3.90;;
47481;SDS011;33219;47.410;9.730;2023-08-06T01:46:28;5.65;;;4.15;;
47481;SDS011;33219;47.410;9.730;2023-08-06T01:48:55;5.58;;;4.30;;
47481;SDS011;33219;47.410;9.730;2023-08-06T01:51:23;6.10;;;4.22;;
47481;SDS011;33219;47.410;9.730;2023-08-06T01:53:50;5.05;;;3.80;;
47481;SDS011;33219;47.410;9.730;2023-08-06T01:56:18;5.75;;;3.87;;
47481;SDS011;33219;47.410;9.730;2023-08-06T01:58:46;6.55;;;3.98;;
47481;SDS011;33219;47.410;9.730;2023-08-06T02:01:13;4.87;;;3.85;;
47481;SDS011;33219;47.410;9.730;2023-08-06T02:03:41;7.62;;;5.08;;
47481;SDS011;33219;47.410;9.730;2023-08-06T02:06:08;8.40;;;5.70;;
47481;SDS011;33219;47.410;9.730;2023-08-06T02:08:36;9.85;;;6.42;;
47481;SDS011;33219;47.410;9.730;2023-08-06T02:11:05;9.33;;;6.67;;
47481;SDS011;33219;47.410;9.730;2023-08-06T02:13:33;8.58;;;6.70;;
47481;SDS011;33219;47.410;9.730;2023-08-06T02:16:00;9.58;;;6.67;;
47481;SDS011;33219;47.410;9.730;2023-08-06T02:18:29;8.38;;;6.33;;
47481;SDS011;33219;47.410;9.730;2023-08-06T02:20:57;9.33;;;7.05;;
47481;SDS011;33219;47.410;9.730;2023-08-06T02:23:25;11.73;;;7.80;;
47481;SDS011;33219;47.410;9.730;2023-08-06T02:26:00;10.60;;;7.70;;
47481;SDS011;33219;47.410;9.730;2023-08-06T02:28:29;10.65;;;7.40;;
47481;SDS011;33219;47.410;9.730;2023-08-06T02:30:58;12.28;;;7.58;;
47481;SDS011;33219;47.410;9.730;2023-08-06T02:33:25;8.65;;;6.72;;
47481;SDS011;33219;47.410;9.730;2023-08-06T02:35:59;11.43;;;7.03;;
47481;SDS011;33219;47.410;9.730;2023-08-06T02:38:28;11.73;;;6.80;;
47481;SDS011;33219;47.410;9.730;2023-08-06T02:40:56;7.03;;;4.90;;
47481;SDS011;33219;47.410;9.730;2023-08-06T02:43:23;6.30;;;4.28;;
47481;SDS011;33219;47.410;9.730;2023-08-06T02:45:51;5.05;;;3.50;;
47481;SDS011;33219;47.410;9.730;2023-08-06T02:48:18;4.40;;;3.10;;
47481;SDS011;33219;47.410;9.730;2023-08-06T02:50:46;4.28;;;3.08;;
47481;SDS011;33219;47.410;9.730;2023-08-06T02:53:14;4.05;;;3.08;;
47481;SDS011;33219;47.410;9.730;2023-08-06T02:55:45;5.00;;;3.40;;
47481;SDS011;33219;47.410;9.730;2023-08-06T02:58:15;4.72;;;3.20;;
47481;SDS011;33219;47.410;9.730;2023-08-06T03:00:43;5.47;;;2.90;;
47481;SDS011;33219;47.410;9.730;2023-08-06T03:03:12;4.62;;;3.10;;
47481;SDS011;33219;47.410;9.730;2023-08-06T03:05:39;4.22;;;2.75;;
47481;SDS011;33219;47.410;9.730;2023-08-06T03:08:08;4.58;;;3.00;;
47481;SDS011;33219;47.410;9.730;2023-08-06T03:10:36;4.17;;;2.67;;
47481;SDS011;33219;47.410;9.730;2023-08-06T03:13:03;4.45;;;2.70;;
47481;SDS011;33219;47.410;9.730;2023-08-06T03:15:32;4.85;;;2.70;;
47481;SDS011;33219;47.410;9.730;2023-08-06T03:18:01;4.95;;;2.75;;
47481;SDS011;33219;47.410;9.730;2023-08-06T03:20:33;3.67;;;2.70;;
47481;SDS011;33219;47.410;9.730;2023-08-06T03:23:00;4.22;;;2.90;;
47481;SDS011;33219;47.410;9.730;2023-08-06T03:25:28;4.40;;;2.90;;
47481;SDS011;33219;47.410;9.730;2023-08-06T03:27:56;5.03;;;2.98;;
47481;SDS011;33219;47.410;9.730;2023-08-06T03:30:24;5.95;;;3.05;;
47481;SDS011;33219;47.410;9.730;2023-08-06T03:32:52;5.58;;;3.50;;
47481;SDS011;33219;47.410;9.730;2023-08-06T03:35:20;4.58;;;3.30;;
47481;SDS011;33219;47.410;9.730;2023-08-06T03:37:47;5.40;;;3.40;;
47481;SDS011;33219;47.410;9.730;2023-08-06T03:40:15;6.65;;;3.95;;
47481;SDS011;33219;47.410;9.730;2023-08-06T03:42:43;7.92;;;4.87;;
47481;SDS011;33219;47.410;9.730;2023-08-06T03:45:10;7.92;;;5.00;;
47481;SDS011;33219;47.410;9.730;2023-08-06T03:47:38;7.90;;;5.65;;
47481;SDS011;33219;47.410;9.730;2023-08-06T03:50:05;7.45;;;5.75;;
47481;SDS011;33219;47.410;9.730;2023-08-06T03:52:34;6.28;;;4.45;;
47481;SDS011;33219;47.410;9.730;2023-08-06T03:55:02;6.33;;;4.00;;
47481;SDS011;33219;47.410;9.730;2023-08-06T03:57:30;5.80;;;3.47;;
47481;SDS011;33219;47.410;9.730;2023-08-06T03:59:57;4.92;;;2.87;;
47481;SDS011;33219;47.410;9.730;2023-08-06T04:02:25;5.95;;;2.58;;
47481;SDS011;33219;47.410;9.730;2023-08-06T04:04:54;3.58;;;2.27;;
47481;SDS011;33219;47.410;9.730;2023-08-06T04:07:22;3.98;;;2.20;;
47481;SDS011;33219;47.410;9.730;2023-08-06T04:09:53;3.35;;;2.20;;
47481;SDS011;33219;47.410;9.730;2023-08-06T04:12:21;3.05;;;1.98;;
47481;SDS011;33219;47.410;9.730;2023-08-06T04:14:50;4.05;;;2.08;;
47481;SDS011;33219;47.410;9.730;2023-08-06T04:17:20;6.67;;;2.30;;
47481;SDS011;33219;47.410;9.730;2023-08-06T04:19:48;3.40;;;2.12;;
47481;SDS011;33219;47.410;9.730;2023-08-06T04:22:22;3.62;;;2.30;;
47481;SDS011;33219;47.410;9.730;2023-08-06T04:24:50;3.80;;;2.62;;
47481;SDS011;33219;47.410;9.730;2023-08-06T04:27:18;5.00;;;2.10;;
47481;SDS011;33219;47.410;9.730;2023-08-06T04:29:46;4.95;;;2.10;;
47481;SDS011;33219;47.410;9.730;2023-08-06T04:32:13;5.37;;;2.25;;
47481;SDS011;33219;47.410;9.730;2023-08-06T04:34:41;3.70;;;2.25;;
47481;SDS011;33219;47.410;9.730;2023-08-06T04:37:09;4.00;;;2.65;;
47481;SDS011;33219;47.410;9.730;2023-08-06T04:39:36;4.45;;;3.05;;
47481;SDS011;33219;47.410;9.730;2023-08-06T04:42:04;6.60;;;3.62;;
47481;SDS011;33219;47.410;9.730;2023-08-06T04:44:32;5.45;;;3.20;;
47481;SDS011;33219;47.410;9.730;2023-08-06T04:47:00;3.87;;;3.25;;
47481;SDS011;33219;47.410;9.730;2023-08-06T04:49:27;5.35;;;3.35;;
47481;SDS011;33219;47.410;9.730;2023-08-06T04:51:55;5.28;;;2.80;;
47481;SDS011;33219;47.410;9.730;2023-08-06T04:54:22;3.60;;;2.60;;
47481;SDS011;33219;47.410;9.730;2023-08-06T04:56:51;4.28;;;2.80;;
47481;SDS011;33219;47.410;9.730;2023-08-06T04:59:25;4.05;;;2.62;;
47481;SDS011;33219;47.410;9.730;2023-08-06T05:01:49;3.15;;;2.10;;
47481;SDS011;33219;47.410;9.730;2023-08-06T05:04:16;3.37;;;2.40;;
47481;SDS011;33219;47.410;9.730;2023-08-06T05:06:44;5.95;;;2.45;;
47481;SDS011;33219;47.410;9.730;2023-08-06T05:09:11;2.95;;;1.98;;
47481;SDS011;33219;47.410;9.730;2023-08-06T05:11:39;6.00;;;2.37;;
47481;SDS011;33219;47.410;9.730;2023-08-06T05:14:07;4.00;;;2.10;;
47481;SDS011;33219;47.410;9.730;2023-08-06T05:16:34;4.40;;;2.10;;
47481;SDS011;33219;47.410;9.730;2023-08-06T05:19:02;3.30;;;2.10;;
47481;SDS011;33219;47.410;9.730;2023-08-06T05:21:29;3.37;;;2.00;;
47481;SDS011;33219;47.410;9.730;2023-08-06T05:23:57;4.65;;;2.00;;
47481;SDS011;33219;47.410;9.730;2023-08-06T05:26:24;3.15;;;2.02;;
47481;SDS011;33219;47.410;9.730;2023-08-06T05:28:52;3.35;;;1.90;;
47481;SDS011;33219;47.410;9.730;2023-08-06T05:31:20;4.42;;;2.12;;
47481;SDS011;33219;47.410;9.730;2023-08-06T05:33:47;3.77;;;1.95;;
47481;SDS011;33219;47.410;9.730;2023-08-06T05:36:15;2.67;;;1.50;;
47481;SDS011;33219;47.410;9.730;2023-08-06T05:38:43;4.70;;;1.85;;
47481;SDS011;33219;47.410;9.730;2023-08-06T05:41:11;3.77;;;2.00;;
47481;SDS011;33219;47.410;9.730;2023-08-06T05:43:38;3.98;;;1.90;;
47481;SDS011;33219;47.410;9.730;2023-08-06T05:46:06;4.85;;;2.30;;
47481;SDS011;33219;47.410;9.730;2023-08-06T05:48:34;2.67;;;1.90;;
47481;SDS011;33219;47.410;9.730;2023-08-06T05:51:01;3.85;;;1.95;;
47481;SDS011;33219;47.410;9.730;2023-08-06T05:53:29;3.67;;;1.90;;
47481;SDS011;33219;47.410;9.730;2023-08-06T05:55:56;4.72;;;2.20;;
47481;SDS011;33219;47.410;9.730;2023-08-06T05:58:24;4.87;;;2.37;;
47481;SDS011;33219;47.410;9.730;2023-08-06T06:00:53;4.75;;;2.30;;
47481;SDS011;33219;47.410;9.730;2023-08-06T06:03:22;5.12;;;2.67;;
47481;SDS011;33219;47.410;9.730;2023-08-06T06:05:49;5.15;;;2.95;;
47481;SDS011;33219;47.410;9.730;2023-08-06T06:08:17;5.20;;;2.90;;
47481;SDS011;33219;47.410;9.730;2023-08-06T06:10:44;3.45;;;2.30;;
47481;SDS011;33219;47.410;9.730;2023-08-06T06:13:12;3.08;;;2.15;;
47481;SDS011;33219;47.410;9.730;2023-08-06T06:15:40;3.52;;;1.90;;
47481;SDS011;33219;47.410;9.730;2023-08-06T06:18:07;5.67;;;1.70;;
47481;SDS011;33219;47.410;9.730;2023-08-06T06:20:35;5.78;;;2.10;;
47481;SDS011;33219;47.410;9.730;2023-08-06T06:23:03;7.03;;;2.27;;
47481;SDS011;33219;47.410;9.730;2023-08-06T06:25:30;4.62;;;1.87;;
47481;SDS011;33219;47.410;9.730;2023-08-06T06:27:58;5.70;;;2.30;;
47481;SDS011;33219;47.410;9.730;2023-08-06T06:30:25;3.27;;;1.75;;
47481;SDS011;33219;47.410;9.730;2023-08-06T06:32:53;3.87;;;1.42;;
47481;SDS011;33219;47.410;9.730;2023-08-06T06:35:21;2.92;;;1.35;;
47481;SDS011;33219;47.410;9.730;2023-08-06T06:37:48;3.60;;;1.70;;
47481;SDS011;33219;47.410;9.730;2023-08-06T06:40:16;3.20;;;1.37;;
47481;SDS011;33219;47.410;9.730;2023-08-06T06:42:43;6.00;;;2.02;;
47481;SDS011;33219;47.410;9.730;2023-08-06T06:45:11;3.50;;;1.37;;
47481;SDS011;33219;47.410;9.730;2023-08-06T06:47:38;2.42;;;1.20;;
47481;SDS011;33219;47.410;9.730;2023-08-06T06:50:06;3.27;;;1.57;;
47481;SDS011;33219;47.410;9.730;2023-08-06T06:52:34;2.27;;;1.20;;
47481;SDS011;33219;47.410;9.730;2023-08-06T06:55:02;4.47;;;1.70;;
47481;SDS011;33219;47.410;9.730;2023-08-06T06:57:29;4.65;;;1.80;;
47481;SDS011;33219;47.410;9.730;2023-08-06T06:59:57;2.30;;;1.57;;
47481;SDS011;33219;47.410;9.730;2023-08-06T07:02:24;3.40;;;1.47;;
47481;SDS011;33219;47.410;9.730;2023-08-06T07:04:53;5.72;;;1.50;;
47481;SDS011;33219;47.410;9.730;2023-08-06T07:07:22;2.15;;;1.35;;
47481;SDS011;33219;47.410;9.730;2023-08-06T07:09:49;5.00;;;1.85;;
47481;SDS011;33219;47.410;9.730;2023-08-06T07:12:18;3.87;;;1.70;;
47481;SDS011;33219;47.410;9.730;2023-08-06T07:14:47;2.92;;;1.60;;
47481;SDS011;33219;47.410;9.730;2023-08-06T07:17:24;2.95;;;1.52;;
47481;SDS011;33219;47.410;9.730;2023-08-06T07:19:49;3.70;;;1.60;;
47481;SDS011;33219;47.410;9.730;2023-08-06T07:22:17;2.52;;;1.50;;
47481;SDS011;33219;47.410;9.730;2023-08-06T07:24:44;3.35;;;1.77;;
47481;SDS011;33219;47.410;9.730;2023-08-06T07:27:12;3.45;;;1.90;;
47481;SDS011;33219;47.410;9.730;2023-08-06T07:29:39;3.60;;;1.82;;
47481;SDS011;33219;47.410;9.730;2023-08-06T07:32:07;4.28;;;2.02;;
47481;SDS011;33219;47.410;9.730;2023-08-06T07:34:35;6.80;;;2.10;;
47481;SDS011;33219;47.410;9.730;2023-08-06T07:37:02;5.97;;;1.70;;
47481;SDS011;33219;47.410;9.730;2023-08-06T07:39:30;3.40;;;1.62;;
47481;SDS011;33219;47.410;9.730;2023-08-06T07:41:58;3.60;;;1.17;;
47481;SDS011;33219;47.410;9.730;2023-08-06T07:44:25;1.80;;;0.88;;
47481;SDS011;33219;47.410;9.730;2023-08-06T07:46:53;2.70;;;1.45;;
47481;SDS011;33219;47.410;9.730;2023-08-06T07:49:21;1.20;;;0.60;;
47481;SDS011;33219;47.410;9.730;2023-08-06T07:51:50;1.35;;;0.75;;
47481;SDS011;33219;47.410;9.730;2023-08-06T07:56:57;2.60;;;0.95;;
47481;SDS011;33219;47.410;9.730;2023-08-06T07:59:24;1.15;;;0.57;;
47481;SDS011;33219;47.410;9.730;2023-08-06T08:01:52;2.83;;;0.98;;
47481;SDS011;33219;47.410;9.730;2023-08-06T08:04:21;2.33;;;1.07;;
47481;SDS011;33219;47.410;9.730;2023-08-06T08:06:50;1.85;;;0.90;;
47481;SDS011;33219;47.410;9.730;2023-08-06T08:09:17;2.15;;;0.80;;
47481;SDS011;33219;47.410;9.730;2023-08-06T08:11:45;3.12;;;0.95;;
47481;SDS011;33219;47.410;9.730;2023-08-06T08:14:13;1.42;;;0.88;;
47481;SDS011;33219;47.410;9.730;2023-08-06T08:16:40;1.70;;;0.80;;
47481;SDS011;33219;47.410;9.730;2023-08-06T08:19:08;3.45;;;1.05;;
47481;SDS011;33219;47.410;9.730;2023-08-06T08:21:37;1.35;;;0.70;;
47481;SDS011;33219;47.410;9.730;2023-08-06T08:24:05;2.15;;;0.90;;
47481;SDS011;33219;47.410;9.730;2023-08-06T08:26:32;1.45;;;0.82;;
47481;SDS011;33219;47.410;9.730;2023-08-06T08:29:01;2.10;;;0.75;;
47481;SDS011;33219;47.410;9.730;2023-08-06T08:31:29;1.72;;;0.88;;
47481;SDS011;33219;47.410;9.730;2023-08-06T08:33:59;1.27;;;0.75;;
47481;SDS011;33219;47.410;9.730;2023-08-06T08:36:29;2.42;;;0.60;;
47481;SDS011;33219;47.410;9.730;2023-08-06T08:38:56;1.07;;;0.57;;
47481;SDS011;33219;47.410;9.730;2023-08-06T08:41:24;2.47;;;0.80;;
47481;SDS011;33219;47.410;9.730;2023-08-06T08:43:53;2.40;;;0.93;;
47481;SDS011;33219;47.410;9.730;2023-08-06T08:46:22;2.17;;;0.70;;
47481;SDS011;33219;47.410;9.730;2023-08-06T08:48:53;1.67;;;0.50;;
47481;SDS011;33219;47.410;9.730;2023-08-06T08:51:21;2.35;;;0.72;;
47481;SDS011;33219;47.410;9.730;2023-08-06T08:53:49;4.53;;;1.00;;
47481;SDS011;33219;47.410;9.730;2023-08-06T08:56:20;2.50;;;0.80;;
47481;SDS011;33219;47.410;9.730;2023-08-06T08:58:48;1.15;;;0.50;;
47481;SDS011;33219;47.410;9.730;2023-08-06T09:01:18;2.75;;;0.60;;
47481;SDS011;33219;47.410;9.730;2023-08-06T09:03:47;0.95;;;0.50;;
47481;SDS011;33219;47.410;9.730;2023-08-06T09:06:16;1.95;;;0.60;;
47481;SDS011;33219;47.410;9.730;2023-08-06T09:08:51;1.72;;;0.35;;
47481;SDS011;33219;47.410;9.730;2023-08-06T09:11:19;1.20;;;0.42;;
47481;SDS011;33219;47.410;9.730;2023-08-06T09:13:47;0.75;;;0.40;;
47481;SDS011;33219;47.410;9.730;2023-08-06T09:16:15;1.67;;;0.50;;
47481;SDS011;33219;47.410;9.730;2023-08-06T09:18:43;0.70;;;0.45;;
47481;SDS011;33219;47.410;9.730;2023-08-06T09:21:14;0.82;;;0.42;;
47481;SDS011;33219;47.410;9.730;2023-08-06T09:23:44;1.40;;;0.47;;
47481;SDS011;33219;47.410;9.730;2023-08-06T09:26:12;1.92;;;0.70;;
47481;SDS011;33219;47.410;9.730;2023-08-06T09:28:40;2.30;;;0.70;;
47481;SDS011;33219;47.410;9.730;2023-08-06T09:31:09;1.10;;;0.70;;
47481;SDS011;33219;47.410;9.730;2023-08-06T09:33:37;1.05;;;0.33;;
47481;SDS011;33219;47.410;9.730;2023-08-06T09:36:11;1.62;;;0.45;;
47481;SDS011;33219;47.410;9.730;2023-08-06T09:38:39;0.23;;;0.23;;
47481;SDS011;33219;47.410;9.730;2023-08-06T09:41:08;1.35;;;0.40;;
47481;SDS011;33219;47.410;9.730;2023-08-06T09:43:42;0.50;;;0.20;;
47481;SDS011;33219;47.410;9.730;2023-08-06T09:46:14;1.45;;;0.28;;
47481;SDS011;33219;47.410;9.730;2023-08-06T09:48:48;0.28;;;0.13;;
47481;SDS011;33219;47.410;9.730;2023-08-06T09:51:17;1.62;;;0.42;;
47481;SDS011;33219;47.410;9.730;2023-08-06T09:53:45;0.10;;;0.10;;
47481;SDS011;33219;47.410;9.730;2023-08-06T09:56:16;0.23;;;0.20;;
47481;SDS011;33219;47.410;9.730;2023-08-06T09:58:44;0.30;;;0.10;;
47481;SDS011;33219;47.410;9.730;2023-08-06T10:01:15;0.28;;;0.10;;
47481;SDS011;33219;47.410;9.730;2023-08-06T10:03:44;0.98;;;0.30;;
47481;SDS011;33219;47.410;9.730;2023-08-06T10:06:12;1.17;;;0.20;;
47481;SDS011;33219;47.410;9.730;2023-08-06T10:08:40;0.10;;;0.10;;
47481;SDS011;33219;47.410;9.730;2023-08-06T10:11:08;0.68;;;0.33;;
47481;SDS011;33219;47.410;9.730;2023-08-06T10:13:37;0.15;;;0.15;;
47481;SDS011;33219;47.410;9.730;2023-08-06T10:16:05;1.02;;;0.20;;
47481;SDS011;33219;47.410;9.730;2023-08-06T10:18:33;0.75;;;0.30;;
47481;SDS011;33219;47.410;9.730;2023-08-06T10:21:07;0.30;;;0.20;;
47481;SDS011;33219;47.410;9.730;2023-08-06T10:23:35;0.20;;;0.20;;
47481;SDS011;33219;47.410;9.730;2023-08-06T10:26:04;0.33;;;0.20;;
47481;SDS011;33219;47.410;9.730;2023-08-06T10:28:35;0.23;;;0.20;;
47481;SDS011;33219;47.410;9.730;2023-08-06T10:31:04;0.55;;;0.23;;
47481;SDS011;33219;47.410;9.730;2023-08-06T10:33:42;0.30;;;0.20;;
47481;SDS011;33219;47.410;9.730;2023-08-06T10:36:11;1.70;;;0.33;;
47481;SDS011;33219;47.410;9.730;2023-08-06T10:38:45;0.23;;;0.20;;
47481;SDS011;33219;47.410;9.730;2023-08-06T10:43:51;0.50;;;0.30;;
47481;SDS011;33219;47.410;9.730;2023-08-06T10:46:22;0.95;;;0.30;;
47481;SDS011;33219;47.410;9.730;2023-08-06T10:48:52;1.35;;;0.30;;
47481;SDS011;33219;47.410;9.730;2023-08-06T10:51:19;0.47;;;0.20;;
47481;SDS011;33219;47.410;9.730;2023-08-06T10:53:48;0.80;;;0.47;;
47481;SDS011;33219;47.410;9.730;2023-08-06T10:56:17;1.20;;;0.50;;
47481;SDS011;33219;47.410;9.730;2023-08-06T11:01:16;0.82;;;0.40;;
47481;SDS011;33219;47.410;9.730;2023-08-06T11:03:45;0.70;;;0.42;;
47481;SDS011;33219;47.410;9.730;2023-08-06T11:06:18;0.33;;;0.23;;
47481;SDS011;33219;47.410;9.730;2023-08-06T11:08:47;0.35;;;0.20;;
47481;SDS011;33219;47.410;9.730;2023-08-06T11:11:17;0.10;;;0.10;;
47481;SDS011;33219;47.410;9.730;2023-08-06T11:13:50;0.42;;;0.30;;
47481;SDS011;33219;47.410;9.730;2023-08-06T11:16:15;0.70;;;0.25;;
47481;SDS011;33219;47.410;9.730;2023-08-06T11:18:53;0.50;;;0.40;;
47481;SDS011;33219;47.410;9.730;2023-08-06T11:21:23;0.72;;;0.20;;
47481;SDS011;33219;47.410;9.730;2023-08-06T11:23:51;1.45;;;0.50;;
47481;SDS011;33219;47.410;9.730;2023-08-06T11:26:19;0.78;;;0.57;;
47481;SDS011;33219;47.410;9.730;2023-08-06T11:28:49;0.50;;;0.30;;
47481;SDS011;33219;47.410;9.730;2023-08-06T11:31:20;2.45;;;0.50;;
47481;SDS011;33219;47.410;9.730;2023-08-06T11:33:51;1.07;;;0.50;;
47481;SDS011;33219;47.410;9.730;2023-08-06T11:36:36;1.75;;;0.40;;
47481;SDS011;33219;47.410;9.730;2023-08-06T11:39:00;0.50;;;0.30;;
47481;SDS011;33219;47.410;9.730;2023-08-06T11:41:29;0.40;;;0.30;;
47481;SDS011;33219;47.410;9.730;2023-08-06T11:43:57;1.75;;;0.40;;
47481;SDS011;33219;47.410;9.730;2023-08-06T11:46:26;0.62;;;0.30;;
47481;SDS011;33219;47.410;9.730;2023-08-06T11:48:54;1.07;;;0.45;;
47481;SDS011;33219;47.410;9.730;2023-08-06T11:51:27;1.57;;;0.35;;
47481;SDS011;33219;47.410;9.730;2023-08-06T11:53:55;1.42;;;0.40;;
47481;SDS011;33219;47.410;9.730;2023-08-06T11:56:26;0.23;;;0.23;;
47481;SDS011;33219;47.410;9.730;2023-08-06T11:58:54;0.20;;;0.20;;
47481;SDS011;33219;47.410;9.730;2023-08-06T12:01:22;0.50;;;0.25;;
47481;SDS011;33219;47.410;9.730;2023-08-06T12:03:50;0.65;;;0.30;;
47481;SDS011;33219;47.410;9.730;2023-08-06T12:06:18;0.30;;;0.30;;
47481;SDS011;33219;47.410;9.730;2023-08-06T12:08:45;0.40;;;0.30;;
47481;SDS011;33219;47.410;9.730;2023-08-06T12:11:14;0.23;;;0.23;;
47481;SDS011;33219;47.410;9.730;2023-08-06T12:13:41;0.80;;;0.30;;
47481;SDS011;33219;47.410;9.730;2023-08-06T12:16:09;0.10;;;0.10;;
47481;SDS011;33219;47.410;9.730;2023-08-06T12:18:36;1.42;;;0.50;;
47481;SDS011;33219;47.410;9.730;2023-08-06T12:21:04;0.23;;;0.20;;
47481;SDS011;33219;47.410;9.730;2023-08-06T12:23:32;0.30;;;0.20;;
47481;SDS011;33219;47.410;9.730;2023-08-06T12:25:59;1.42;;;0.55;;
47481;SDS011;33219;47.410;9.730;2023-08-06T12:28:27;0.82;;;0.42;;
47481;SDS011;33219;47.410;9.730;2023-08-06T12:30:54;0.65;;;0.42;;
47481;SDS011;33219;47.410;9.730;2023-08-06T12:33:22;0.55;;;0.20;;
47481;SDS011;33219;47.410;9.730;2023-08-06T12:35:49;0.30;;;0.25;;
47481;SDS011;33219;47.410;9.730;2023-08-06T12:38:19;1.30;;;0.33;;
47481;SDS011;33219;47.410;9.730;2023-08-06T12:40:46;0.23;;;0.23;;
47481;SDS011;33219;47.410;9.730;2023-08-06T12:43:15;0.23;;;0.23;;
47481;SDS011;33219;47.410;9.730;2023-08-06T12:45:42;1.20;;;0.50;;
47481;SDS011;33219;47.410;9.730;2023-08-06T12:48:10;0.45;;;0.33;;
47481;SDS011;33219;47.410;9.730;2023-08-06T12:50:37;0.60;;;0.53;;
47481;SDS011;33219;47.410;9.730;2023-08-06T12:53:05;0.80;;;0.40;;
47481;SDS011;33219;47.410;9.730;2023-08-06T12:55:33;0.20;;;0.20;;
47481;SDS011;33219;47.410;9.730;2023-08-06T12:58:02;0.60;;;0.30;;
47481;SDS011;33219;47.410;9.730;2023-08-06T13:00:30;0.53;;;0.40;;
47481;SDS011;33219;47.410;9.730;2023-08-06T13:03:02;1.02;;;0.47;;
47481;SDS011;33219;47.410;9.730;2023-08-06T13:05:30;0.45;;;0.20;;
47481;SDS011;33219;47.410;9.730;2023-08-06T13:07:59;1.12;;;0.60;;
47481;SDS011;33219;47.410;9.730;2023-08-06T13:10:27;1.20;;;0.70;;
47481;SDS011;33219;47.410;9.730;2023-08-06T13:12:57;0.72;;;0.45;;
47481;SDS011;33219;47.410;9.730;2023-08-06T13:15:25;0.53;;;0.30;;
47481;SDS011;33219;47.410;9.730;2023-08-06T13:17:53;0.53;;;0.35;;
47481;SDS011;33219;47.410;9.730;2023-08-06T13:20:22;1.27;;;0.40;;
47481;SDS011;33219;47.410;9.730;2023-08-06T13:22:51;1.10;;;0.30;;
47481;SDS011;33219;47.410;9.730;2023-08-06T13:25:20;0.30;;;0.30;;
47481;SDS011;33219;47.410;9.730;2023-08-06T13:27:49;0.30;;;0.30;;
47481;SDS011;33219;47.410;9.730;2023-08-06T13:30:18;0.80;;;0.45;;
47481;SDS011;33219;47.410;9.730;2023-08-06T13:32:46;0.60;;;0.37;;
47481;SDS011;33219;47.410;9.730;2023-08-06T13:35:14;1.37;;;0.40;;
47481;SDS011;33219;47.410;9.730;2023-08-06T13:37:42;1.40;;;0.40;;
47481;SDS011;33219;47.410;9.730;2023-08-06T13:40:11;0.30;;;0.30;;
47481;SDS011;33219;47.410;9.730;2023-08-06T13:42:39;0.20;;;0.20;;
47481;SDS011;33219;47.410;9.730;2023-08-06T13:45:08;0.62;;;0.40;;
47481;SDS011;33219;47.410;9.730;2023-08-06T13:47:36;1.25;;;0.50;;
47481;SDS011;33219;47.410;9.730;2023-08-06T13:50:06;2.12;;;1.20;;
47481;SDS011;33219;47.410;9.730;2023-08-06T13:52:35;0.95;;;0.75;;
47481;SDS011;33219;47.410;9.730;2023-08-06T13:55:03;0.40;;;0.40;;
47481;SDS011;33219;47.410;9.730;2023-08-06T13:57:32;0.75;;;0.30;;
47481;SDS011;33219;47.410;9.730;2023-08-06T14:00:01;1.10;;;0.20;;
47481;SDS011;33219;47.410;9.730;2023-08-06T14:02:31;0.10;;;0.10;;
47481;SDS011;33219;47.410;9.730;2023-08-06T14:04:59;1.65;;;0.20;;
47481;SDS011;33219;47.410;9.730;2023-08-06T14:07:28;0.42;;;0.15;;
47481;SDS011;33219;47.410;9.730;2023-08-06T14:09:56;2.08;;;0.35;;
47481;SDS011;33219;47.410;9.730;2023-08-06T14:12:25;0.45;;;0.23;;
47481;SDS011;33219;47.410;9.730;2023-08-06T14:14:53;0.35;;;0.28;;
47481;SDS011;33219;47.410;9.730;2023-08-06T14:17:23;0.53;;;0.30;;
47481;SDS011;33219;47.410;9.730;2023-08-06T14:19:51;0.20;;;0.20;;
47481;SDS011;33219;47.410;9.730;2023-08-06T14:22:20;0.30;;;0.30;;
47481;SDS011;33219;47.410;9.730;2023-08-06T14:24:50;0.30;;;0.30;;
47481;SDS011;33219;47.410;9.730;2023-08-06T14:27:20;0.30;;;0.10;;
47481;SDS011;33219;47.410;9.730;2023-08-06T14:29:48;0.60;;;0.42;;
47481;SDS011;33219;47.410;9.730;2023-08-06T14:32:17;1.80;;;0.55;;
47481;SDS011;33219;47.410;9.730;2023-08-06T14:34:45;0.30;;;0.30;;
47481;SDS011;33219;47.410;9.730;2023-08-06T14:37:13;0.75;;;0.40;;
47481;SDS011;33219;47.410;9.730;2023-08-06T14:39:42;0.15;;;0.15;;
47481;SDS011;33219;47.410;9.730;2023-08-06T14:42:12;0.23;;;0.17;;
47481;SDS011;33219;47.410;9.730;2023-08-06T14:44:40;0.30;;;0.20;;
47481;SDS011;33219;47.410;9.730;2023-08-06T14:47:09;0.62;;;0.40;;
47481;SDS011;33219;47.410;9.730;2023-08-06T14:49:40;2.10;;;0.25;;
47481;SDS011;33219;47.410;9.730;2023-08-06T14:52:10;0.42;;;0.25;;
47481;SDS011;33219;47.410;9.730;2023-08-06T14:54:39;0.60;;;0.47;;
47481;SDS011;33219;47.410;9.730;2023-08-06T14:57:07;1.62;;;0.40;;
47481;SDS011;33219;47.410;9.730;2023-08-06T14:59:38;0.33;;;0.20;;
47481;SDS011;33219;47.410;9.730;2023-08-06T15:02:07;0.53;;;0.42;;
47481;SDS011;33219;47.410;9.730;2023-08-06T15:04:36;0.80;;;0.50;;
47481;SDS011;33219;47.410;9.730;2023-08-06T15:07:04;1.72;;;0.45;;
47481;SDS011;33219;47.410;9.730;2023-08-06T15:09:35;0.78;;;0.47;;
47481;SDS011;33219;47.410;9.730;2023-08-06T15:12:05;0.75;;;0.40;;